Time;durP1;ratioP1;P1;durP2;ratioP2;P2;SDS_P1;SDS_P2;PMS_P1;PMS_P2;Temp;Humidity;BMP_temperature;BMP_pressure;BME280_temperature;BME280_humidity;BME280_pressure;Samples;Min_cycle;Max_cycle;Signal;HPM_P1;HPM_P2
2023/08/21 00:00:53;;;;;;;;;;;;;;;27.33;62.25;101230.91;6179186;23;19913;-87
2023/08/21 00:03:38;;;;;;;;;;;;;;;27.32;62.40;101234.94;6178790;23;19916;-89
2023/08/21 00:06:23;;;;;;;;;;;;;;;27.28;62.59;101230.63;6179680;23;19913;-88
2023/08/21 00:09:08;;;;;;;;;;;;;;;27.29;62.44;101229.38;6182230;23;19912;-89
2023/08/21 00:11:52;;;;;;;;;;;;;;;27.26;62.38;101231.03;6162118;23;19913;-88
2023/08/21 00:14:37;;;;;;;;;;;;;;;27.26;62.29;101233.03;6182347;23;19912;-88
2023/08/21 00:17:21;;;;;;;;;;;;;;;27.26;62.29;101230.22;6181112;23;19912;-88
2023/08/21 00:20:08;;;;;;;;;;;;;;;27.26;62.10;101225.44;6160653;23;19916;-88
2023/08/21 00:22:53;;;;;;;;;;;;;;;27.28;62.20;101236.97;6163424;23;19913;-87
2023/08/21 00:25:38;;;;;;;;;;;;;;;27.27;62.16;101220.66;6183832;23;19912;-88
2023/08/21 00:28:22;;;;;;;;;;;;;;;27.28;62.41;101225.03;6163718;23;19912;-89
2023/08/21 00:31:08;;;;;;;;;;;;;;;27.28;62.36;101223.00;6182950;23;19912;-87
2023/08/21 00:33:52;;;;;;;;;;;;;;;27.25;61.82;101226.63;6174212;23;19912;-86
2023/08/21 00:36:36;;;;;;;;;;;;;;;27.27;62.20;101224.22;6174231;23;19916;-86
2023/08/21 00:39:21;;;;;;;;;;;;;;;27.23;62.43;101231.84;6173609;23;19916;-88
2023/08/21 00:42:07;;;;;;;;;;;;;;;27.19;62.56;101225.50;6173146;23;19916;-88
2023/08/21 00:44:51;;;;;;;;;;;;;;;27.12;62.90;101225.59;6173435;23;19912;-86
2023/08/21 00:47:36;;;;;;;;;;;;;;;27.10;63.03;101217.63;6195863;23;19912;-87
2023/08/21 00:50:20;;;;;;;;;;;;;;;27.11;62.81;101208.06;6174603;23;19920;-83
2023/08/21 00:53:06;;;;;;;;;;;;;;;27.13;62.76;101216.00;6152589;23;19916;-84
2023/08/21 00:55:51;;;;;;;;;;;;;;;27.14;62.79;101212.78;6152801;23;19916;-83
2023/08/21 00:58:36;;;;;;;;;;;;;;;27.11;62.79;101210.84;6173253;23;19917;-84
2023/08/21 01:01:23;;;;;;;;;;;;;;;27.10;62.80;101209.25;6153124;23;19916;-84
2023/08/21 01:04:08;;;;;;;;;;;;;;;27.10;62.30;101214.84;6173735;23;19912;-83
2023/08/21 01:06:53;;;;;;;;;;;;;;;27.08;62.66;101217.25;6168305;23;19912;-83
2023/08/21 01:09:45;;;;;;;;;;;;;;;27.09;62.29;101213.25;6156295;23;19912;-85
2023/08/21 01:12:34;;;;;;;;;;;;;;;27.08;62.45;101214.44;6154326;23;20243;-85
2023/08/21 01:15:19;;;;;;;;;;;;;;;27.06;62.50;101222.47;6196274;23;19912;-84
2023/08/21 01:18:04;;;;;;;;;;;;;;;27.00;62.61;101218.53;6174802;23;19912;-84
2023/08/21 01:20:49;;;;;;;;;;;;;;;26.93;62.69;101220.59;6156004;23;20252;-89
2023/08/21 01:23:34;;;;;;;;;;;;;;;26.95;62.34;101223.78;6198825;23;19912;-89
2023/08/21 01:26:19;;;;;;;;;;;;;;;26.95;62.46;101219.00;6159754;23;19912;-89
2023/08/21 01:29:04;;;;;;;;;;;;;;;26.94;62.04;101220.19;6202344;23;19912;-87
2023/08/21 01:32:14;;;;;;;;;;;;;;;26.93;62.35;101218.59;6161481;23;19912;-88
2023/08/21 01:35:00;;;;;;;;;;;;;;;26.92;62.03;101222.59;6139885;23;19912;-88
2023/08/21 01:37:45;;;;;;;;;;;;;;;26.86;62.48;101227.03;6157862;23;19916;-88
2023/08/21 01:40:29;;;;;;;;;;;;;;;26.86;62.52;101215.09;6158398;23;19920;-85
2023/08/21 01:43:18;;;;;;;;;;;;;;;26.80;62.27;101221.13;6197206;23;19912;-85
2023/08/21 01:46:04;;;;;;;;;;;;;;;26.76;62.26;101214.00;6156433;23;19913;-86
2023/08/21 01:48:48;;;;;;;;;;;;;;;26.71;62.74;101218.03;6196913;23;20332;-85
2023/08/21 01:51:33;;;;;;;;;;;;;;;26.72;62.79;101218.78;6154997;23;20260;-86
2023/08/21 01:54:20;;;;;;;;;;;;;;;26.71;62.54;101218.03;6196853;23;20255;-84
2023/08/21 01:57:05;;;;;;;;;;;;;;;26.64;62.74;101217.28;6157726;23;19955;-85
2023/08/21 01:59:49;;;;;;;;;;;;;;;26.57;62.92;101215.34;6157746;23;19916;-85
2023/08/21 02:02:35;;;;;;;;;;;;;;;26.57;62.99;101220.13;6198775;23;19913;-85
2023/08/21 02:05:19;;;;;;;;;;;;;;;26.56;62.85;101224.94;6178142;23;19912;-85
2023/08/21 02:08:04;;;;;;;;;;;;;;;26.58;62.72;101208.56;6178758;23;19912;-86
2023/08/21 02:10:49;;;;;;;;;;;;;;;26.57;62.97;101217.34;6159983;23;19912;-88
2023/08/21 02:13:34;;;;;;;;;;;;;;;26.62;62.68;101214.09;6160492;23;19912;-89
2023/08/21 02:16:21;;;;;;;;;;;;;;;26.61;62.27;101221.69;6178457;23;19912;-89
2023/08/21 02:19:05;;;;;;;;;;;;;;;26.62;62.20;101216.88;6156349;23;19916;-89
2023/08/21 02:21:50;;;;;;;;;;;;;;;26.64;62.06;101214.50;6158638;23;19912;-88
2023/08/21 02:24:35;;;;;;;;;;;;;;;26.61;62.50;101212.53;6158356;23;19912;-88
2023/08/21 02:27:19;;;;;;;;;;;;;;;26.55;62.89;101214.19;6182306;23;19912;-89
2023/08/21 02:30:07;;;;;;;;;;;;;;;26.50;63.53;101211.84;6156986;23;19942;-85
2023/08/21 02:32:52;;;;;;;;;;;;;;;26.50;63.30;101211.84;6153934;23;19919;-87
2023/08/21 02:35:36;;;;;;;;;;;;;;;26.48;63.46;101200.28;6154247;23;19920;-87
2023/08/21 02:38:21;;;;;;;;;;;;;;;26.48;63.52;101203.06;6194813;23;19913;-87
2023/08/21 02:41:05;;;;;;;;;;;;;;;26.45;63.66;101209.50;6153621;23;19931;-86
2023/08/21 02:43:50;;;;;;;;;;;;;;;26.41;63.98;101208.72;6174017;23;19912;-86
2023/08/21 02:46:36;;;;;;;;;;;;;;;26.34;63.82;101209.56;6174306;23;19912;-86
2023/08/21 02:49:22;;;;;;;;;;;;;;;26.29;63.88;101215.59;6153362;23;19916;-85
2023/08/21 02:52:06;;;;;;;;;;;;;;;26.22;63.79;101210.84;6173704;23;19916;-86
2023/08/21 02:54:51;;;;;;;;;;;;;;;26.19;63.86;101214.44;6196541;23;19912;-87
2023/08/21 02:57:35;;;;;;;;;;;;;;;26.25;63.50;101214.84;6173974;23;20336;-87
2023/08/21 03:00:20;;;;;;;;;;;;;;;26.21;63.44;101214.03;6173750;23;19916;-87
2023/08/21 03:03:04;;;;;;;;;;;;;;;26.16;63.62;101214.47;6194633;23;19912;-87
2023/08/21 03:05:50;;;;;;;;;;;;;;;26.11;63.98;101218.47;6175775;23;19912;-85
2023/08/21 03:08:34;;;;;;;;;;;;;;;26.07;63.84;101220.50;6181183;23;19912;-85
2023/08/21 03:11:19;;;;;;;;;;;;;;;26.12;63.93;101217.28;6181246;23;19916;-85
2023/08/21 03:14:04;;;;;;;;;;;;;;;25.92;64.81;101216.22;6152162;23;19916;-82
2023/08/21 03:16:48;;;;;;;;;;;;;;;25.90;64.84;101210.28;6151910;23;19915;-83
2023/08/21 03:19:33;;;;;;;;;;;;;;;25.85;65.45;101213.50;6193867;23;19917;-83
2023/08/21 03:22:17;;;;;;;;;;;;;;;25.70;66.12;101217.56;6174304;23;19916;-87
2023/08/21 03:25:02;;;;;;;;;;;;;;;25.65;66.61;101218.75;6174691;23;19912;-84
2023/08/21 03:27:49;;;;;;;;;;;;;;;25.60;66.21;101215.63;6172993;23;19916;-85
2023/08/21 03:30:33;;;;;;;;;;;;;;;25.73;66.30;101213.94;6173417;23;20335;-86
2023/08/21 03:33:18;;;;;;;;;;;;;;;25.89;65.43;101212.25;6174384;23;19916;-87
2023/08/21 03:36:03;;;;;;;;;;;;;;;25.93;65.14;101210.25;6152622;23;19916;-86
2023/08/21 03:38:48;;;;;;;;;;;;;;;26.02;64.78;101212.56;6172655;23;19916;-86
2023/08/21 03:41:32;;;;;;;;;;;;;;;26.06;64.66;101202.19;6173478;23;20252;-86
2023/08/21 03:44:18;;;;;;;;;;;;;;;26.05;64.48;101203.41;6152479;23;19912;-86
2023/08/21 03:47:02;;;;;;;;;;;;;;;26.14;64.16;101206.50;6173608;23;19912;-87
2023/08/21 03:49:54;;;;;;;;;;;;;;;26.07;64.08;101206.56;6156844;23;19913;-87
2023/08/21 03:52:41;;;;;;;;;;;;;;;26.05;64.24;101216.53;6158236;23;19916;-87
2023/08/21 03:55:27;;;;;;;;;;;;;;;26.05;64.17;101206.19;6177204;23;19920;-88
2023/08/21 03:58:12;;;;;;;;;;;;;;;25.98;64.53;101204.22;6166411;23;19900;-84
2023/08/21 04:00:57;;;;;;;;;;;;;;;25.93;64.72;101207.44;6186589;23;20403;-89
2023/08/21 04:03:43;;;;;;;;;;;;;;;25.86;64.63;101209.47;6165148;23;19912;-88
2023/08/21 04:06:27;;;;;;;;;;;;;;;25.84;64.73;101207.13;6186539;23;19920;-88
2023/08/21 04:09:12;;;;;;;;;;;;;;;25.82;64.96;101211.50;6184253;23;19916;-87
2023/08/21 04:11:56;;;;;;;;;;;;;;;25.80;64.75;101209.09;6180237;23;19916;-86
2023/08/21 04:14:40;;;;;;;;;;;;;;;25.79;64.62;101212.31;6158239;23;19916;-87
2023/08/21 04:17:26;;;;;;;;;;;;;;;25.56;65.02;101210.03;6156017;23;19916;-88
2023/08/21 04:20:11;;;;;;;;;;;;;;;25.44;65.56;101208.50;6174871;23;19916;-88
2023/08/21 04:22:55;;;;;;;;;;;;;;;25.09;67.18;101214.19;6172026;23;20264;-88
2023/08/21 04:25:43;;;;;;;;;;;;;;;24.99;67.36;101209.44;6144642;23;20436;-88
2023/08/21 04:28:27;;;;;;;;;;;;;;;25.11;67.01;101218.16;6173695;23;19916;-84
2023/08/21 04:31:12;;;;;;;;;;;;;;;24.95;67.53;101220.56;6193375;23;19912;-86
2023/08/21 04:33:56;;;;;;;;;;;;;;;24.91;67.54;101213.44;6152379;23;19916;-85
2023/08/21 04:36:41;;;;;;;;;;;;;;;24.84;67.35;101216.97;6152650;23;19916;-86
2023/08/21 04:39:26;;;;;;;;;;;;;;;24.84;67.00;101214.19;6193815;23;19920;-86
2023/08/21 04:42:11;;;;;;;;;;;;;;;24.87;66.86;101213.44;6173988;23;19912;-84
2023/08/21 04:44:55;;;;;;;;;;;;;;;24.91;66.69;101213.44;6194786;23;19912;-87
2023/08/21 04:47:40;;;;;;;;;;;;;;;24.91;66.72;101219.00;6153958;23;19912;-87
2023/08/21 04:50:25;;;;;;;;;;;;;;;24.90;66.18;101211.84;6195326;23;19915;-85
2023/08/21 04:53:10;;;;;;;;;;;;;;;25.02;65.90;101214.19;6194593;23;19912;-86
2023/08/21 04:55:54;;;;;;;;;;;;;;;25.15;65.48;101226.47;6152474;23;19912;-84
2023/08/21 04:58:39;;;;;;;;;;;;;;;25.19;65.40;101223.72;6171556;23;19912;-84
2023/08/21 05:01:25;;;;;;;;;;;;;;;25.22;65.16;101232.03;6194104;23;19912;-85
2023/08/21 05:04:10;;;;;;;;;;;;;;;25.25;66.44;101234.00;6173346;23;19912;-86
2023/08/21 05:06:54;;;;;;;;;;;;;;;25.17;67.48;101240.81;6153462;23;19912;-87
2023/08/21 05:09:40;;;;;;;;;;;;;;;25.38;65.52;101239.94;6173530;23;19913;-86
2023/08/21 05:12:26;;;;;;;;;;;;;;;25.52;64.67;101242.66;6154015;23;19941;-87
2023/08/21 05:15:15;;;;;;;;;;;;;;;25.50;65.04;101254.19;6153480;23;19916;-86
2023/08/21 05:18:08;;;;;;;;;;;;;;;25.62;64.90;101253.00;6174866;23;19912;-86
2023/08/21 05:21:00;;;;;;;;;;;;;;;25.81;64.51;101255.28;6154348;23;19917;-88
2023/08/21 05:23:52;;;;;;;;;;;;;;;25.88;64.66;101258.03;6176249;23;19916;-88
2023/08/21 05:26:42;;;;;;;;;;;;;;;26.04;63.80;101251.19;6155861;23;19913;-88
2023/08/21 05:29:34;;;;;;;;;;;;;;;26.16;63.35;101254.28;6173782;23;19912;-86
2023/08/21 05:32:24;;;;;;;;;;;;;;;26.27;62.96;101257.81;6153828;23;19912;-86
2023/08/21 05:35:13;;;;;;;;;;;;;;;26.32;63.11;101257.38;6153558;23;19912;-87
2023/08/21 05:38:05;;;;;;;;;;;;;;;26.36;63.56;101260.94;6152691;23;19912;-83
2023/08/21 05:40:58;;;;;;;;;;;;;;;26.53;62.87;101264.00;6173305;23;20360;-82
2023/08/21 05:43:47;;;;;;;;;;;;;;;26.73;62.17;101262.22;6152095;23;20217;-83
2023/08/21 05:46:34;;;;;;;;;;;;;;;26.89;62.08;101261.72;6172727;23;19912;-82
2023/08/21 05:49:24;;;;;;;;;;;;;;;27.00;61.79;101266.00;6172330;23;19912;-84
2023/08/21 05:52:16;;;;;;;;;;;;;;;27.05;61.84;101265.56;6172580;23;19931;-83
2023/08/21 05:55:09;;;;;;;;;;;;;;;27.11;61.72;101274.28;6174615;23;19912;-83
2023/08/21 05:58:01;;;;;;;;;;;;;;;27.26;60.73;101269.31;6174326;23;19913;-81
2023/08/21 06:00:53;;;;;;;;;;;;;;;27.41;60.03;101276.34;6174203;23;19920;-83
2023/08/21 06:03:46;;;;;;;;;;;;;;;27.50;60.19;101274.66;6153688;23;20244;-84
2023/08/21 06:06:45;;;;;;;;;;;;;;;27.57;59.70;101273.78;6172606;23;19912;-84
2023/08/21 06:09:37;;;;;;;;;;;;;;;27.63;59.32;101270.09;6173373;23;19912;-84
2023/08/21 06:12:29;;;;;;;;;;;;;;;27.69;59.58;101278.81;6153589;23;19917;-83
2023/08/21 06:15:21;;;;;;;;;;;;;;;27.73;59.04;101276.78;6173056;23;19912;-83
2023/08/21 06:18:12;;;;;;;;;;;;;;;27.77;58.87;101283.13;6195527;23;20356;-83
2023/08/21 06:21:04;;;;;;;;;;;;;;;27.82;58.98;101276.25;6173797;23;19920;-82
2023/08/21 06:23:56;;;;;;;;;;;;;;;27.88;58.66;101275.38;6152802;23;19913;-82
2023/08/21 06:26:48;;;;;;;;;;;;;;;27.92;58.72;101267.72;6195073;23;19912;-81
2023/08/21 06:29:40;;;;;;;;;;;;;;;27.95;58.47;101278.06;6152255;23;19912;-85
2023/08/21 06:32:32;;;;;;;;;;;;;;;27.99;58.42;101276.00;6173033;23;19912;-81
2023/08/21 06:35:24;;;;;;;;;;;;;;;28.04;58.30;101274.72;6194118;23;19912;-82
2023/08/21 06:38:15;;;;;;;;;;;;;;;28.08;58.28;101281.09;6193765;23;19912;-81
2023/08/21 06:41:05;;;;;;;;;;;;;;;28.12;58.27;101281.06;6171310;23;19920;-82
2023/08/21 06:43:57;;;;;;;;;;;;;;;28.15;57.66;101280.22;6172181;23;19912;-82
2023/08/21 06:46:51;;;;;;;;;;;;;;;28.19;57.85;101280.97;6193066;23;19912;-82
2023/08/21 06:49:43;;;;;;;;;;;;;;;28.21;57.61;101284.13;6152387;23;20248;-82
2023/08/21 06:52:35;;;;;;;;;;;;;;;28.23;57.65;101281.69;6152821;23;19916;-82
2023/08/21 06:55:27;;;;;;;;;;;;;;;28.28;57.35;101287.63;6173158;23;19913;-82
2023/08/21 06:58:18;;;;;;;;;;;;;;;28.33;56.89;101286.34;6173252;23;19912;-82
2023/08/21 07:01:10;;;;;;;;;;;;;;;28.36;56.43;101288.28;6172594;23;19920;-80
2023/08/21 07:04:02;;;;;;;;;;;;;;;28.39;56.27;101290.25;6172345;23;20251;-80
2023/08/21 07:06:54;;;;;;;;;;;;;;;28.53;56.19;101283.63;6193950;23;19912;-82
2023/08/21 07:09:46;;;;;;;;;;;;;;;28.52;55.90;101296.03;6193338;23;19912;-79
2023/08/21 07:12:35;;;;;;;;;;;;;;;28.53;55.90;101289.22;6151962;23;19912;-82
2023/08/21 07:15:27;;;;;;;;;;;;;;;28.59;55.36;101293.94;6171893;23;20331;-82
2023/08/21 07:18:17;;;;;;;;;;;;;;;28.63;55.86;101288.25;6172932;23;19913;-83
2023/08/21 07:21:09;;;;;;;;;;;;;;;28.69;55.35;101287.38;6151830;23;19916;-87
2023/08/21 07:23:58;;;;;;;;;;;;;;;28.72;55.26;101292.13;6151192;23;19912;-85
2023/08/21 07:26:48;;;;;;;;;;;;;;;28.73;55.28;101285.31;6152682;23;19912;-85
2023/08/21 07:29:37;;;;;;;;;;;;;;;28.76;55.38;101287.25;6151167;23;19912;-86
2023/08/21 07:32:29;;;;;;;;;;;;;;;28.79;55.31;101286.41;6176589;23;20276;-87
2023/08/21 07:35:21;;;;;;;;;;;;;;;28.86;54.61;101289.06;6174873;23;19916;-86
2023/08/21 07:38:13;;;;;;;;;;;;;;;28.89;54.81;101290.25;6172444;23;19912;-83
2023/08/21 07:41:10;;;;;;;;;;;;;;;28.76;55.06;101278.84;6171888;23;19920;-81
2023/08/21 07:44:02;;;;;;;;;;;;;;;28.67;54.64;101292.59;6151356;23;19916;-81
2023/08/21 07:46:51;;;;;;;;;;;;;;;28.68;54.38;101285.78;6193732;23;19912;-80
2023/08/21 07:49:43;;;;;;;;;;;;;;;28.96;53.39;101284.50;6172029;23;19912;-80
2023/08/21 07:52:33;;;;;;;;;;;;;;;29.07;52.61;101285.09;6193090;23;19912;-80
2023/08/21 07:55:25;;;;;;;;;;;;;;;28.85;53.64;101287.50;6150795;23;19913;-79
2023/08/21 07:58:17;;;;;;;;;;;;;;;29.05;52.56;101289.56;6172460;23;19920;-79
2023/08/21 08:01:10;;;;;;;;;;;;;;;29.33;52.01;101280.66;6193614;23;19916;-80
2023/08/21 08:04:02;;;;;;;;;;;;;;;29.65;49.61;101286.41;6165917;23;19915;-79
2023/08/21 08:06:54;;;;;;;;;;;;;;;29.84;48.94;101295.22;6175134;23;19916;-79
2023/08/21 08:09:46;;;;;;;;;;;;;;;29.42;50.79;101289.25;6174265;23;19912;-79
2023/08/21 08:12:38;;;;;;;;;;;;;;;29.83;49.13;101288.81;6173291;23;19912;-80
2023/08/21 08:15:28;;;;;;;;;;;;;;;29.96;48.60;101294.59;6194854;23;19912;-87
2023/08/21 08:18:19;;;;;;;;;;;;;;;30.32;46.80;101295.38;6200416;23;19912;-87
2023/08/21 08:21:10;;;;;;;;;;;;;;;30.44;46.42;101293.88;6156374;23;19920;-87
2023/08/21 08:24:02;;;;;;;;;;;;;;;30.67;46.03;101295.75;6178163;23;19916;-87
2023/08/21 08:26:53;;;;;;;;;;;;;;;30.82;44.57;101288.53;6177883;23;19916;-88
2023/08/21 08:29:42;;;;;;;;;;;;;;;30.93;44.70;101289.06;6178055;23;19912;-84
2023/08/21 08:32:31;;;;;;;;;;;;;;;31.09;44.06;101288.28;6157287;23;19912;-89
2023/08/21 08:35:23;;;;;;;;;;;;;;;31.22;42.92;101298.34;6157013;23;19916;-89
2023/08/21 08:38:15;;;;;;;;;;;;;;;31.35;42.68;101299.16;6154868;23;19913;-90
2023/08/21 08:41:09;;;;;;;;;;;;;;;31.41;41.63;101291.75;6175832;23;19916;-89
2023/08/21 08:44:01;;;;;;;;;;;;;;;31.59;41.52;101290.50;6155368;23;19912;-90
2023/08/21 08:46:54;;;;;;;;;;;;;;;31.65;41.29;101288.69;6175432;23;19916;-89
2023/08/21 08:49:43;;;;;;;;;;;;;;;31.78;41.58;101287.50;6154203;23;19912;-89
2023/08/21 08:52:42;;;;;;;;;;;;;;;31.80;41.70;101295.47;6154753;23;20530;-90
2023/08/21 08:55:34;;;;;;;;;;;;;;;31.96;41.33;101286.16;6176892;23;19912;-90
2023/08/21 08:58:26;;;;;;;;;;;;;;;32.04;41.72;101284.72;6176557;23;19912;-90
2023/08/21 09:01:18;;;;;;;;;;;;;;;32.11;41.21;101274.03;6174573;23;20351;-88
2023/08/21 09:04:10;;;;;;;;;;;;;;;32.14;41.08;101270.34;6175896;23;19912;-89
2023/08/21 09:07:15;;;;;;;;;;;;;;;32.25;41.43;101276.41;6197425;23;19912;-91
2023/08/21 09:10:06;;;;;;;;;;;;;;;32.40;41.04;101275.97;6155381;23;19912;-90
2023/08/21 09:12:58;;;;;;;;;;;;;;;32.46;40.74;101274.91;6175382;23;20328;-90
2023/08/21 09:15:46;;;;;;;;;;;;;;;32.49;41.10;101270.44;6154545;23;19912;-89
2023/08/21 09:18:38;;;;;;;;;;;;;;;32.57;40.94;101269.72;6155121;23;19912;-88
2023/08/21 09:21:30;;;;;;;;;;;;;;;32.56;40.48;101268.16;6154586;23;19917;-84
2023/08/21 09:24:19;;;;;;;;;;;;;;;32.65;39.95;101267.50;6152434;23;19916;-84
2023/08/21 09:27:17;;;;;;;;;;;;;;;32.63;40.40;101267.91;6172694;23;20251;-84
2023/08/21 09:30:08;;;;;;;;;;;;;;;32.66;39.88;101255.00;6196882;23;20335;-84
2023/08/21 09:33:00;;;;;;;;;;;;;;;32.79;40.27;101258.56;6174224;23;19916;-84
2023/08/21 09:35:53;;;;;;;;;;;;;;;32.81;40.18;101249.66;6152928;23;19916;-85
2023/08/21 09:38:47;;;;;;;;;;;;;;;32.92;39.35;101252.88;6196185;23;19912;-84
2023/08/21 09:41:40;;;;;;;;;;;;;;;33.04;40.04;101255.66;6174655;23;20348;-84
2023/08/21 09:44:36;;;;;;;;;;;;;;;33.01;39.78;101242.47;6195035;23;19915;-87
2023/08/21 09:47:28;;;;;;;;;;;;;;;33.05;39.82;101237.50;6153645;23;20256;-84
2023/08/21 09:50:21;;;;;;;;;;;;;;;33.18;39.95;101233.84;6154387;23;19912;-84
2023/08/21 09:53:15;;;;;;;;;;;;;;;33.37;39.65;101236.31;6174416;23;20340;-84
2023/08/21 09:56:07;;;;;;;;;;;;;;;33.38;39.66;101225.84;6153267;23;19912;-84
2023/08/21 09:58:58;;;;;;;;;;;;;;;33.52;39.83;101236.59;6173901;23;19912;-85
2023/08/21 10:01:51;;;;;;;;;;;;;;;33.45;39.44;101231.22;6196500;23;19920;-85
2023/08/21 10:04:46;;;;;;;;;;;;;;;33.57;39.95;101224.72;6173937;23;19912;-86
2023/08/21 10:07:35;;;;;;;;;;;;;;;33.66;39.70;101229.63;6194761;23;19912;-85
2023/08/21 10:10:27;;;;;;;;;;;;;;;33.73;39.25;101223.75;6174455;23;19912;-86
2023/08/21 10:13:19;;;;;;;;;;;;;;;33.70;39.53;101222.63;6173653;23;19917;-86
2023/08/21 10:16:11;;;;;;;;;;;;;;;33.82;39.78;101220.94;6153545;23;19912;-84
2023/08/21 10:19:05;;;;;;;;;;;;;;;33.95;39.16;101218.81;6172909;23;20340;-84
2023/08/21 10:21:55;;;;;;;;;;;;;;;34.10;39.04;101224.66;6174155;23;19916;-84
2023/08/21 10:24:45;;;;;;;;;;;;;;;34.22;38.58;101220.97;6153305;23;19912;-84
2023/08/21 10:27:37;;;;;;;;;;;;;;;34.25;38.30;101220.03;6173117;23;19916;-86
2023/08/21 10:30:29;;;;;;;;;;;;;;;34.25;38.33;101212.34;6171454;23;19916;-83
2023/08/21 10:33:19;;;;;;;;;;;;;;;34.41;38.16;101211.28;6171316;23;19912;-85
2023/08/21 10:36:12;;;;;;;;;;;;;;;34.41;38.17;101211.28;6173080;23;19916;-84
2023/08/21 10:39:05;;;;;;;;;;;;;;;34.38;38.21;101212.22;6151287;23;19916;-84
2023/08/21 10:41:58;;;;;;;;;;;;;;;34.45;38.21;101200.59;6173074;23;19920;-84
2023/08/21 10:44:47;;;;;;;;;;;;;;;34.49;38.26;101206.13;6152534;23;19916;-83
2023/08/21 10:47:34;;;;;;;;;;;;;;;34.46;38.23;101209.88;6194480;23;19916;-83
2023/08/21 10:50:26;;;;;;;;;;;;;;;34.52;37.27;101197.47;6173627;23;20611;-84
2023/08/21 10:53:18;;;;;;;;;;;;;;;34.68;37.14;101202.88;6153200;23;19916;-84
2023/08/21 10:56:10;;;;;;;;;;;;;;;34.78;36.97;101191.56;6173982;23;19938;-85
2023/08/21 10:59:02;;;;;;;;;;;;;;;34.76;37.21;101180.72;6173735;23;19916;-86
2023/08/21 11:01:52;;;;;;;;;;;;;;;34.88;37.29;101190.31;6196436;23;19928;-85
2023/08/21 11:04:44;;;;;;;;;;;;;;;34.83;37.53;101188.91;6158349;23;19912;-86
2023/08/21 11:07:39;;;;;;;;;;;;;;;35.03;37.02;101191.22;6177923;23;20251;-86
2023/08/21 11:10:30;;;;;;;;;;;;;;;35.02;36.70;101181.19;6156006;23;19912;-84
2023/08/21 11:13:23;;;;;;;;;;;;;;;34.97;36.66;101193.13;6170828;23;19916;-83
2023/08/21 11:16:10;;;;;;;;;;;;;;;34.94;36.94;101185.59;6175303;23;19916;-82
2023/08/21 11:19:03;;;;;;;;;;;;;;;35.14;37.19;101186.66;6200899;23;19912;-84
2023/08/21 11:21:55;;;;;;;;;;;;;;;35.05;36.78;101181.00;6156812;23;19920;-84
2023/08/21 11:24:52;;;;;;;;;;;;;;;35.19;36.61;101173.97;6156697;23;20415;-85
2023/08/21 11:27:41;;;;;;;;;;;;;;;35.15;36.72;101181.81;6154945;23;20355;-83
2023/08/21 11:30:32;;;;;;;;;;;;;;;35.24;36.46;101178.19;6156049;23;19912;-84
2023/08/21 11:33:22;;;;;;;;;;;;;;;35.21;36.48;101170.63;6155403;23;19912;-83
2023/08/21 11:36:12;;;;;;;;;;;;;;;35.31;36.38;101166.53;6175799;23;19920;-82
2023/08/21 11:39:07;;;;;;;;;;;;;;;35.46;35.84;101164.59;6155446;23;19916;-83
2023/08/21 11:41:57;;;;;;;;;;;;;;;35.56;35.63;101154.81;6176010;23;19916;-84
2023/08/21 11:44:45;;;;;;;;;;;;;;;35.49;36.38;101152.34;6175825;23;19912;-85
2023/08/21 11:47:37;;;;;;;;;;;;;;;35.41;36.42;101156.75;6176155;23;20252;-84
2023/08/21 11:50:29;;;;;;;;;;;;;;;35.57;35.76;101154.34;6154755;23;19912;-83
2023/08/21 11:53:31;;;;;;;;;;;;;;;35.66;35.50;101162.03;6195074;23;20328;-82
2023/08/21 11:56:23;;;;;;;;;;;;;;;35.59;35.49;101162.34;6153241;23;19912;-83
2023/08/21 11:59:12;;;;;;;;;;;;;;;35.73;35.01;101155.25;6173428;23;20335;-83
2023/08/21 12:02:10;;;;;;;;;;;;;;;35.65;35.72;101151.97;6173930;23;19920;-83
2023/08/21 12:05:07;;;;;;;;;;;;;;;35.59;35.54;101145.38;6173798;23;19912;-84
2023/08/21 12:07:59;;;;;;;;;;;;;;;35.74;35.72;101145.50;6194324;23;19916;-83
2023/08/21 12:10:52;;;;;;;;;;;;;;;35.77;35.24;101147.34;6152694;23;20248;-82
2023/08/21 12:13:41;;;;;;;;;;;;;;;35.88;35.28;101139.13;6152867;23;19916;-84
2023/08/21 12:16:33;;;;;;;;;;;;;;;35.96;35.33;101141.13;6167742;23;19912;-84
2023/08/21 12:19:28;;;;;;;;;;;;;;;35.98;34.72;101137.81;6173615;23;19913;-84
2023/08/21 12:22:20;;;;;;;;;;;;;;;35.98;34.67;101130.09;6173099;23;19920;-84
2023/08/21 12:25:08;;;;;;;;;;;;;;;36.08;35.16;101130.03;6172977;23;19912;-81
2023/08/21 12:27:58;;;;;;;;;;;;;;;42.61;24.82;101145.25;6173115;23;20328;-85
2023/08/21 12:30:47;;;;;;;;;;;;;;;45.69;20.98;101146.84;6172512;23;19912;-83
2023/08/21 12:33:34;;;;;;;;;;;;;;;46.56;19.95;101144.81;6167390;23;20342;-84
2023/08/21 12:36:21;;;;;;;;;;;;;;;47.41;19.34;101144.34;6173201;23;19912;-84
2023/08/21 12:39:13;;;;;;;;;;;;;;;48.41;17.86;101144.44;6173632;23;19913;-85
2023/08/21 12:42:03;;;;;;;;;;;;;;;47.04;19.41;101136.91;6195507;23;20248;-85
2023/08/21 12:44:55;;;;;;;;;;;;;;;47.00;19.28;101128.59;6195524;23;19920;-84
2023/08/21 12:47:47;;;;;;;;;;;;;;;46.35;19.58;101121.72;6173065;23;19912;-83
2023/08/21 12:50:39;;;;;;;;;;;;;;;45.21;21.15;101121.31;6152708;23;19912;-84
2023/08/21 12:53:28;;;;;;;;;;;;;;;45.11;21.19;101121.72;6152030;23;19916;-84
2023/08/21 12:56:20;;;;;;;;;;;;;;;43.63;22.41;101115.34;6193508;23;19915;-83
2023/08/21 12:59:12;;;;;;;;;;;;;;;43.15;23.19;101110.31;6172394;23;19912;-83
2023/08/21 13:02:04;;;;;;;;;;;;;;;41.51;25.57;101114.94;6186868;23;19900;-83
2023/08/21 13:04:53;;;;;;;;;;;;;;;41.72;24.63;101101.91;6180057;23;19920;-85
2023/08/21 13:07:45;;;;;;;;;;;;;;;41.49;25.14;101101.19;6178236;23;19912;-87
2023/08/21 13:10:35;;;;;;;;;;;;;;;40.82;26.03;101094.69;6176393;23;20344;-85
2023/08/21 13:13:27;;;;;;;;;;;;;;;40.40;26.72;101092.75;6171833;23;19912;-86
2023/08/21 13:16:19;;;;;;;;;;;;;;;40.21;27.25;101086.72;6197452;23;19916;-85
2023/08/21 13:19:08;;;;;;;;;;;;;;;39.94;27.14;101093.06;6155006;23;20275;-83
2023/08/21 13:22:01;;;;;;;;;;;;;;;39.59;27.56;101096.22;6178880;23;19912;-87
2023/08/21 13:24:53;;;;;;;;;;;;;;;39.38;27.69;101087.00;6160447;23;19916;-89
2023/08/21 13:27:53;;;;;;;;;;;;;;;39.34;28.44;101078.72;6174104;23;19916;-89
2023/08/21 13:31:11;;;;;;;;;;;;;;;39.45;28.13;101086.56;6157033;23;19951;-91
2023/08/21 13:34:04;;;;;;;;;;;;;;;39.67;27.84;101083.81;6189393;23;19912;-87
2023/08/21 13:36:53;;;;;;;;;;;;;;;39.54;27.68;101083.50;6177159;23;19912;-88
2023/08/21 13:39:45;;;;;;;;;;;;;;;39.45;27.87;101072.31;6175980;23;19912;-89
2023/08/21 13:42:36;;;;;;;;;;;;;;;39.06;28.49;101068.38;6174062;23;20248;-86
2023/08/21 13:45:26;;;;;;;;;;;;;;;39.09;28.70;101067.34;6197606;23;19916;-87
2023/08/21 13:48:18;;;;;;;;;;;;;;;38.89;28.54;101060.47;6175323;23;19916;-88
2023/08/21 13:51:02;;;;;;;;;;;;;;;38.87;28.34;101060.16;6175737;23;19912;-88
2023/08/21 13:53:51;;;;;;;;;;;;;;;38.75;28.70;101057.75;6196853;23;19912;-87
2023/08/21 13:56:41;;;;;;;;;;;;;;;38.51;29.59;101058.00;6154277;23;19912;-85
2023/08/21 13:59:33;;;;;;;;;;;;;;;38.51;29.43;101058.00;6172974;23;19911;-87
2023/08/21 14:02:20;;;;;;;;;;;;;;;38.30;29.17;101050.81;6152869;23;19916;-88
2023/08/21 14:05:10;;;;;;;;;;;;;;;38.36;29.53;101055.25;6156696;23;19916;-87
2023/08/21 14:08:02;;;;;;;;;;;;;;;38.34;29.61;101054.19;6156139;23;19912;-88
2023/08/21 14:10:54;;;;;;;;;;;;;;;38.23;29.67;101046.31;6175827;23;19913;-88
2023/08/21 14:13:46;;;;;;;;;;;;;;;38.15;29.82;101048.03;6154588;23;19913;-89
2023/08/21 14:16:38;;;;;;;;;;;;;;;38.14;29.75;101037.19;6145479;23;19913;-90
2023/08/21 14:19:33;;;;;;;;;;;;;;;37.91;29.58;101045.38;6145680;23;19916;-89
2023/08/21 14:22:25;;;;;;;;;;;;;;;37.80;29.96;101038.78;6145571;23;19912;-88
2023/08/21 14:25:15;;;;;;;;;;;;;;;37.83;29.93;101034.97;6125837;23;19921;-88
2023/08/21 14:28:07;;;;;;;;;;;;;;;37.61;30.47;101032.59;6145066;23;20509;-87